createdAt,value
2018-09-21T00:00:08.478Z,0.00
2018-09-21T00:01:08.500Z,0.00
2018-09-21T00:02:08.572Z,0.00
2018-09-21T00:03:08.607Z,0.00
2018-09-21T00:04:08.654Z,0.00
2018-09-21T00:05:08.702Z,0.00
2018-09-21T00:06:08.752Z,0.00
2018-09-21T00:07:08.850Z,0.00
2018-09-21T00:08:08.856Z,0.00
2018-09-21T00:09:08.905Z,0.00
2018-09-21T00:10:08.952Z,0.00
2018-09-21T00:11:09.015Z,0.00
2018-09-21T00:12:09.103Z,0.00
2018-09-21T00:13:09.106Z,0.00
2018-09-21T00:14:09.159Z,0.00
2018-09-21T00:15:09.208Z,0.00
2018-09-21T00:16:09.264Z,0.00
2018-09-21T00:17:09.332Z,0.00
2018-09-21T00:18:09.359Z,0.00
2018-09-21T00:19:09.417Z,0.00
2018-09-21T00:20:09.461Z,0.00
2018-09-21T00:21:09.515Z,0.00
2018-09-21T00:22:09.585Z,0.00
2018-09-21T00:23:09.637Z,0.00
2018-09-21T00:24:09.662Z,0.00
2018-09-21T00:25:09.710Z,0.00
2018-09-21T00:26:09.759Z,0.00
2018-09-21T00:27:09.818Z,0.00
2018-09-21T00:28:09.896Z,0.00
2018-09-21T00:29:09.916Z,0.00
2018-09-21T00:30:09.965Z,0.00
2018-09-21T00:31:10.021Z,0.00
2018-09-21T00:32:10.066Z,0.00
2018-09-21T00:33:10.224Z,0.00
2018-09-21T00:34:10.185Z,0.00
2018-09-21T00:35:10.247Z,0.00
2018-09-21T00:36:10.275Z,0.00
2018-09-21T00:37:10.322Z,0.00
2018-09-21T00:38:10.378Z,0.00
2018-09-21T00:39:10.421Z,0.00
2018-09-21T00:40:10.567Z,0.00
2018-09-21T00:41:10.526Z,0.00
2018-09-21T00:42:10.574Z,0.00
2018-09-21T00:43:10.626Z,0.00
2018-09-21T00:44:10.676Z,0.00
2018-09-21T00:45:10.740Z,0.00
2018-09-21T00:46:10.782Z,0.00
2018-09-21T00:47:10.832Z,0.00
2018-09-21T00:48:10.876Z,0.00
2018-09-21T00:49:10.930Z,0.00
2018-09-21T00:50:11.010Z,0.00
2018-09-21T00:51:11.025Z,0.00
2018-09-21T00:52:11.086Z,0.00
2018-09-21T00:53:11.125Z,0.00
2018-09-21T00:54:11.187Z,0.00
2018-09-21T00:55:11.252Z,0.00
2018-09-21T00:56:11.306Z,0.00
2018-09-21T00:57:11.336Z,0.00
2018-09-21T00:58:11.377Z,0.00
2018-09-21T00:59:11.443Z,0.00
2018-09-21T01:00:11.482Z,0.00
2018-09-21T01:01:11.564Z,0.00
2018-09-21T01:02:11.581Z,0.00
2018-09-21T01:03:11.641Z,0.00
2018-09-21T01:04:11.688Z,0.00
2018-09-21T01:05:11.734Z,0.00
2018-09-21T01:06:11.815Z,0.00
2018-09-21T01:07:11.836Z,0.00
2018-09-21T01:08:11.888Z,0.00
2018-09-21T01:09:11.937Z,0.00
2018-09-21T01:10:11.994Z,0.00
2018-09-21T01:11:12.067Z,0.00
2018-09-21T01:12:12.085Z,0.00
2018-09-21T01:13:12.138Z,0.00
2018-09-21T01:14:12.188Z,0.00
2018-09-21T01:15:12.234Z,0.00
2018-09-21T01:16:12.311Z,0.00
2018-09-21T01:17:12.356Z,0.00
2018-09-21T01:18:12.384Z,0.00
2018-09-21T01:19:12.444Z,0.00
2018-09-21T01:20:12.491Z,0.00
2018-09-21T01:21:12.541Z,0.00
2018-09-21T01:22:12.697Z,0.00
2018-09-21T01:23:12.647Z,0.00
2018-09-21T01:24:12.688Z,0.00
2018-09-21T01:25:12.744Z,0.00
2018-09-21T01:26:12.800Z,0.00
2018-09-21T01:27:12.871Z,0.00
2018-09-21T01:28:12.888Z,0.00
2018-09-21T01:29:13.008Z,0.00
2018-09-21T01:30:13.003Z,0.00
2018-09-21T01:31:13.051Z,0.00
2018-09-21T01:32:13.130Z,0.00
2018-09-21T01:33:13.146Z,0.00
2018-09-21T01:34:13.199Z,0.00
2018-09-21T01:35:13.273Z,0.00
2018-09-21T01:36:13.349Z,0.00
2018-09-21T01:37:13.366Z,0.00
2018-09-21T01:38:13.393Z,0.00
2018-09-21T01:39:13.456Z,0.00
2018-09-21T01:40:13.492Z,0.00
2018-09-21T01:41:13.546Z,0.00
2018-09-21T01:42:13.616Z,0.00
2018-09-21T01:43:13.674Z,0.00
2018-09-21T01:44:13.711Z,0.00
2018-09-21T01:45:13.748Z,0.00
2018-09-21T01:46:13.810Z,0.00
2018-09-21T01:47:13.848Z,0.00
2018-09-21T01:48:13.928Z,0.00
2018-09-21T01:49:13.947Z,0.00
2018-09-21T01:50:14.058Z,0.00
2018-09-21T01:51:14.050Z,0.00
2018-09-21T01:52:14.097Z,0.00
2018-09-21T01:53:14.179Z,0.00
2018-09-21T01:54:14.218Z,0.00
2018-09-21T01:55:14.248Z,0.00
2018-09-21T01:56:14.295Z,0.00
2018-09-21T01:57:14.351Z,0.00
2018-09-21T01:58:14.404Z,0.00
2018-09-21T01:59:15.277Z,0.00
2018-09-21T02:00:14.497Z,0.00
2018-09-21T02:01:14.553Z,0.00
2018-09-21T02:02:15.300Z,0.00
2018-09-21T02:03:14.647Z,0.00
2018-09-21T02:04:14.726Z,0.00
2018-09-21T02:05:14.769Z,0.00
2018-09-21T02:06:14.801Z,0.00
2018-09-21T02:07:14.852Z,0.00
2018-09-21T02:08:14.900Z,0.00
2018-09-21T02:09:14.952Z,0.00
2018-09-21T02:10:15.021Z,0.00
2018-09-21T02:11:15.051Z,0.00
2018-09-21T02:12:15.110Z,0.00
2018-09-21T02:13:15.153Z,0.00
2018-09-21T02:14:15.224Z,0.00
2018-09-21T02:15:15.283Z,0.00
2018-09-21T02:16:15.310Z,0.00
2018-09-21T02:17:15.353Z,0.00
2018-09-21T02:18:15.410Z,0.00
2018-09-21T02:19:15.458Z,0.00
2018-09-21T02:20:15.527Z,0.00
2018-09-21T02:21:15.553Z,0.00
2018-09-21T02:22:15.603Z,0.00
2018-09-21T02:23:15.652Z,0.00
2018-09-21T02:24:15.701Z,0.00
2018-09-21T02:25:15.777Z,0.00
2018-09-21T02:26:15.805Z,0.00
2018-09-21T02:27:15.876Z,0.00
2018-09-21T02:28:15.905Z,0.00
2018-09-21T02:29:15.956Z,0.00
2018-09-21T02:30:16.003Z,0.00
2018-09-21T02:31:16.090Z,0.00
2018-09-21T02:32:16.103Z,0.00
2018-09-21T02:33:16.158Z,0.00
2018-09-21T02:34:16.206Z,0.00
2018-09-21T02:35:16.274Z,0.00
2018-09-21T02:36:16.308Z,0.00
2018-09-21T02:37:16.372Z,0.00
2018-09-21T02:38:16.404Z,0.00
2018-09-21T02:39:16.483Z,0.00
2018-09-21T02:40:17.286Z,0.00
2018-09-21T02:41:16.608Z,0.00
2018-09-21T02:42:16.634Z,0.00
2018-09-21T02:43:16.660Z,0.00
2018-09-21T02:44:16.704Z,0.00
2018-09-21T02:45:16.754Z,0.00
2018-09-21T02:46:16.803Z,0.00
2018-09-21T02:47:16.884Z,0.00
2018-09-21T02:48:17.788Z,0.00
2018-09-21T02:49:16.955Z,0.00
2018-09-21T02:50:17.010Z,0.00
2018-09-21T02:51:17.051Z,0.00
2018-09-21T02:52:17.128Z,0.00
2018-09-21T02:53:17.623Z,0.00
2018-09-21T02:54:17.203Z,0.00
2018-09-21T02:55:17.255Z,0.00
2018-09-21T02:56:17.314Z,0.00
2018-09-21T02:57:17.354Z,0.00
2018-09-21T02:58:17.450Z,0.00
2018-09-21T02:59:17.455Z,0.00
2018-09-21T03:00:17.567Z,0.00
2018-09-21T03:01:17.553Z,0.00
2018-09-21T03:02:17.611Z,0.00
2018-09-21T03:03:17.680Z,0.00
2018-09-21T03:04:17.722Z,0.00
2018-09-21T03:05:17.756Z,0.00
2018-09-21T03:06:17.802Z,0.00
2018-09-21T03:07:17.851Z,0.00
2018-09-21T03:08:18.793Z,0.00
2018-09-21T03:09:17.977Z,0.00
2018-09-21T03:10:18.052Z,0.00
2018-09-21T03:11:18.053Z,0.00
2018-09-21T03:12:18.108Z,0.00
2018-09-21T03:13:18.164Z,0.00
2018-09-21T03:14:18.213Z,0.00
2018-09-21T03:15:18.299Z,0.00
2018-09-21T03:16:18.795Z,0.00
2018-09-21T03:17:18.349Z,0.00
2018-09-21T03:18:18.401Z,0.00
2018-09-21T03:19:18.584Z,0.00
2018-09-21T03:20:18.523Z,0.00
2018-09-21T03:21:18.551Z,0.00
2018-09-21T03:22:18.602Z,0.00
2018-09-21T03:23:18.653Z,0.00
2018-09-21T03:24:18.714Z,0.00
2018-09-21T03:25:18.773Z,0.00
2018-09-21T03:26:18.934Z,0.00
2018-09-21T03:27:18.851Z,0.00
2018-09-21T03:28:18.902Z,0.00
2018-09-21T03:29:18.953Z,0.00
2018-09-21T03:30:19.009Z,0.00
2018-09-21T03:31:19.077Z,0.00
2018-09-21T03:32:19.106Z,0.00
2018-09-21T03:33:19.155Z,0.00
2018-09-21T03:34:19.797Z,0.00
2018-09-21T03:35:19.293Z,0.00
2018-09-21T03:36:19.318Z,0.00
2018-09-21T03:37:19.368Z,0.00
2018-09-21T03:38:19.409Z,0.00
2018-09-21T03:39:19.837Z,0.00
2018-09-21T03:40:19.570Z,0.00
2018-09-21T03:41:19.552Z,0.00
2018-09-21T03:42:19.630Z,0.00
2018-09-21T03:43:19.669Z,0.00
2018-09-21T03:44:19.701Z,0.00
2018-09-21T03:45:19.763Z,0.00
2018-09-21T03:46:19.799Z,0.00
2018-09-21T03:47:19.852Z,0.00
2018-09-21T03:48:19.918Z,0.00
2018-09-21T03:49:19.955Z,0.00
2018-09-21T03:50:20.014Z,0.00
2018-09-21T03:51:20.060Z,0.00
2018-09-21T03:52:20.107Z,0.00
2018-09-21T03:53:20.169Z,0.00
2018-09-21T03:54:20.203Z,0.00
2018-09-21T03:55:20.802Z,0.00
2018-09-21T03:56:20.301Z,0.00
2018-09-21T03:57:20.356Z,0.00
2018-09-21T03:58:20.422Z,0.00
2018-09-21T03:59:20.445Z,0.00
2018-09-21T04:00:20.498Z,0.00
2018-09-21T04:01:20.547Z,0.00
2018-09-21T04:02:20.596Z,0.00
2018-09-21T04:03:20.686Z,0.00
2018-09-21T04:04:20.707Z,0.00
2018-09-21T04:05:20.760Z,0.00
2018-09-21T04:06:20.799Z,0.00
2018-09-21T04:07:20.848Z,0.00
2018-09-21T04:08:20.913Z,0.00
2018-09-21T04:09:20.944Z,0.00
2018-09-21T04:10:20.995Z,0.00
2018-09-21T04:11:21.048Z,0.00
2018-09-21T04:12:21.097Z,0.00
2018-09-21T04:13:21.168Z,0.00
2018-09-21T04:14:21.195Z,0.00
2018-09-21T04:15:21.243Z,0.00
2018-09-21T04:16:21.311Z,0.00
2018-09-21T04:17:21.403Z,0.00
2018-09-21T04:18:21.398Z,0.00
2018-09-21T04:19:23.305Z,0.00
2018-09-21T04:20:21.492Z,0.00
2018-09-21T04:21:21.563Z,0.00
2018-09-21T04:22:21.593Z,0.00
2018-09-21T04:23:21.669Z,0.00
2018-09-21T04:24:21.689Z,0.00
2018-09-21T04:25:22.308Z,0.00
2018-09-21T04:26:21.796Z,0.00
2018-09-21T04:27:21.861Z,0.00
2018-09-21T04:28:22.807Z,0.00
2018-09-21T04:29:21.960Z,0.00
2018-09-21T04:30:22.811Z,0.00
2018-09-21T04:31:22.043Z,0.00
2018-09-21T04:32:22.096Z,0.00
2018-09-21T04:33:23.828Z,0.00
2018-09-21T04:34:22.211Z,0.00
2018-09-21T04:35:22.241Z,4.00
2018-09-21T04:36:22.393Z,4.00
2018-09-21T04:37:22.336Z,0.00
2018-09-21T04:38:22.393Z,4.00
2018-09-21T04:39:22.468Z,4.00
2018-09-21T04:40:22.498Z,4.00
2018-09-21T04:41:22.541Z,4.00
2018-09-21T04:42:22.589Z,4.00
2018-09-21T04:43:22.711Z,8.00
2018-09-21T04:44:23.853Z,8.00
2018-09-21T04:45:22.745Z,12.00
2018-09-21T04:46:22.799Z,16.00
2018-09-21T04:47:22.839Z,16.00
2018-09-21T04:48:22.884Z,20.00
2018-09-21T04:49:22.959Z,28.00
2018-09-21T04:50:23.077Z,32.00
2018-09-21T04:51:23.057Z,40.00
2018-09-21T04:52:23.114Z,48.00
2018-09-21T04:53:23.137Z,56.00
2018-09-21T04:54:23.191Z,64.00
2018-09-21T04:55:23.234Z,80.00
2018-09-21T04:56:23.304Z,96.00
2018-09-21T04:57:23.354Z,108.00
2018-09-21T04:58:23.386Z,128.00
2018-09-21T04:59:23.438Z,148.00
2018-09-21T05:00:23.481Z,168.00
2018-09-21T05:01:23.569Z,188.00
2018-09-21T05:02:23.589Z,216.00
2018-09-21T05:03:23.631Z,244.00
2018-09-21T05:04:23.681Z,272.00
2018-09-21T05:05:23.741Z,304.00
2018-09-21T05:06:23.816Z,336.00
2018-09-21T05:07:23.830Z,368.00
2018-09-21T05:08:23.888Z,408.00
2018-09-21T05:09:23.948Z,444.00
2018-09-21T05:10:23.983Z,488.00
2018-09-21T05:11:24.073Z,528.00
2018-09-21T05:12:24.088Z,572.00
2018-09-21T05:13:24.129Z,620.00
2018-09-21T05:14:24.179Z,668.00
2018-09-21T05:15:24.228Z,716.00
2018-09-21T05:16:24.299Z,768.00
2018-09-21T05:17:24.349Z,824.00
2018-09-21T05:18:24.383Z,876.00
2018-09-21T05:19:24.426Z,928.00
2018-09-21T05:20:24.489Z,984.00
2018-09-21T05:21:24.536Z,1040.00
2018-09-21T05:22:24.616Z,1096.00
2018-09-21T05:23:24.625Z,1156.00
2018-09-21T05:24:24.678Z,1216.00
2018-09-21T05:25:24.725Z,1276.00
2018-09-21T05:26:24.781Z,1336.00
2018-09-21T05:27:24.867Z,1396.00
2018-09-21T05:28:24.876Z,1452.00
2018-09-21T05:29:24.935Z,1512.00
2018-09-21T05:30:24.983Z,1576.00
2018-09-21T05:31:25.041Z,1636.00
2018-09-21T05:32:25.093Z,1700.00
2018-09-21T05:33:25.128Z,1764.00
2018-09-21T05:34:25.191Z,1816.00
2018-09-21T05:35:25.245Z,1876.00
2018-09-21T05:36:25.267Z,1932.00
2018-09-21T05:37:25.323Z,1992.00
2018-09-21T05:38:25.378Z,2048.00
2018-09-21T05:39:25.426Z,2112.00
2018-09-21T05:40:25.488Z,2168.00
2018-09-21T05:41:25.529Z,2228.00
2018-09-21T05:42:25.571Z,2288.00
2018-09-21T05:43:25.622Z,2340.00
2018-09-21T05:44:25.672Z,2392.00
2018-09-21T05:45:25.742Z,2448.00
2018-09-21T05:46:25.801Z,2504.00
2018-09-21T05:47:25.817Z,2560.00
2018-09-21T05:48:25.884Z,2620.00
2018-09-21T05:49:26.324Z,2692.00
2018-09-21T05:50:25.995Z,2760.00
2018-09-21T05:51:26.028Z,2812.00
2018-09-21T05:52:26.089Z,2860.00
2018-09-21T05:53:26.132Z,2904.00
2018-09-21T05:54:26.169Z,2932.00
2018-09-21T05:55:26.213Z,2944.00
2018-09-21T05:56:26.265Z,2960.00
2018-09-21T05:57:26.358Z,2972.00
2018-09-21T05:58:26.374Z,2976.00
2018-09-21T05:59:26.414Z,2972.00
2018-09-21T06:00:26.464Z,2980.00
2018-09-21T06:01:26.513Z,3016.00
2018-09-21T06:02:26.597Z,3076.00
2018-09-21T06:03:26.611Z,3156.00
2018-09-21T06:04:26.666Z,3276.00
2018-09-21T06:05:26.712Z,3412.00
2018-09-21T06:06:26.763Z,3560.00
2018-09-21T06:07:26.947Z,3728.00
2018-09-21T06:08:26.880Z,3872.00
2018-09-21T06:09:26.912Z,3964.00
2018-09-21T06:10:26.963Z,4020.00
2018-09-21T06:11:27.055Z,4064.00
2018-09-21T06:12:27.069Z,4104.00
2018-09-21T06:13:27.116Z,4176.00
2018-09-21T06:14:27.160Z,4252.00
2018-09-21T06:15:27.213Z,4340.00
2018-09-21T06:16:27.290Z,4348.00
2018-09-21T06:17:27.310Z,4440.00
2018-09-21T06:18:27.364Z,4584.00
2018-09-21T06:19:27.475Z,4740.00
2018-09-21T06:20:27.460Z,4772.00
2018-09-21T06:21:27.515Z,4908.00
2018-09-21T06:22:27.562Z,5012.00
2018-09-21T06:23:27.610Z,5108.00
2018-09-21T06:24:27.681Z,5196.00
2018-09-21T06:25:27.717Z,5268.00
2018-09-21T06:26:27.764Z,5336.00
2018-09-21T06:27:27.812Z,5388.00
2018-09-21T06:28:27.866Z,5428.00
2018-09-21T06:29:27.949Z,5528.00
2018-09-21T06:30:27.978Z,5676.00
2018-09-21T06:31:28.013Z,5608.00
2018-09-21T06:32:28.064Z,5664.00
2018-09-21T06:33:28.636Z,5656.00
2018-09-21T06:34:28.182Z,5724.00
2018-09-21T06:35:28.221Z,6480.00
2018-09-21T06:36:28.269Z,8204.00
2018-09-21T06:37:28.314Z,10816.00
2018-09-21T06:38:28.398Z,12648.00
2018-09-21T06:39:28.416Z,12980.00
2018-09-21T06:40:28.468Z,12872.00
2018-09-21T06:41:28.516Z,12904.00
2018-09-21T06:42:28.590Z,13544.00
2018-09-21T06:43:28.636Z,14360.00
2018-09-21T06:44:28.721Z,14568.00
2018-09-21T06:45:28.731Z,14656.00
2018-09-21T06:46:28.787Z,14816.00
2018-09-21T06:47:28.821Z,15776.00
2018-09-21T06:48:28.877Z,16160.00
2018-09-21T06:49:29.837Z,15904.00
2018-09-21T06:50:28.982Z,16224.00
2018-09-21T06:51:29.045Z,16320.00
2018-09-21T06:52:29.070Z,16608.00
2018-09-21T06:53:29.140Z,17472.00
2018-09-21T06:54:29.174Z,18656.00
2018-09-21T06:55:29.278Z,17792.00
2018-09-21T06:56:29.307Z,16864.00
2018-09-21T06:57:29.337Z,15488.00
2018-09-21T06:58:29.380Z,12024.00
2018-09-21T06:59:29.839Z,13460.00
2018-09-21T07:00:29.501Z,12348.00
2018-09-21T07:01:29.632Z,9560.00
2018-09-21T07:02:29.588Z,10244.00
2018-09-21T07:03:29.654Z,8420.00
2018-09-21T07:04:29.691Z,7320.00
2018-09-21T07:05:29.744Z,7436.00
2018-09-21T07:06:29.829Z,7892.00
2018-09-21T07:07:29.849Z,8928.00
2018-09-21T07:08:29.899Z,12308.00
2018-09-21T07:09:31.357Z,11556.00
2018-09-21T07:10:31.844Z,14048.00
2018-09-21T07:11:30.081Z,9908.00
2018-09-21T07:12:30.125Z,22432.00
2018-09-21T07:13:30.161Z,13424.00
2018-09-21T07:14:30.877Z,24064.00
2018-09-21T07:15:30.271Z,21792.00
2018-09-21T07:16:30.315Z,25440.00
2018-09-21T07:17:30.424Z,26208.00
2018-09-21T07:18:30.419Z,24512.00
2018-09-21T07:19:30.480Z,24832.00
2018-09-21T07:20:30.526Z,26816.00
2018-09-21T07:21:30.586Z,26112.00
2018-09-21T07:22:30.727Z,24448.00
2018-09-21T07:23:30.685Z,25280.00
2018-09-21T07:24:30.732Z,26496.00
2018-09-21T07:25:30.794Z,29120.00
2018-09-21T07:26:30.839Z,28448.00
2018-09-21T07:27:30.922Z,29632.00
2018-09-21T07:28:30.966Z,31264.00
2018-09-21T07:29:31.059Z,30880.00
2018-09-21T07:30:31.050Z,33152.00
2018-09-21T07:31:31.115Z,33600.00
2018-09-21T07:32:31.217Z,32608.00
2018-09-21T07:33:31.208Z,32160.00
2018-09-21T07:34:31.261Z,19776.00
2018-09-21T07:35:31.314Z,36896.00
2018-09-21T07:36:31.371Z,34112.00
2018-09-21T07:37:31.461Z,33824.00
2018-09-21T07:38:32.358Z,34048.00
2018-09-21T07:39:31.528Z,35008.00
2018-09-21T07:40:31.589Z,34016.00
2018-09-21T07:41:31.636Z,32672.00
2018-09-21T07:42:31.717Z,32928.00
2018-09-21T07:43:31.748Z,35008.00
2018-09-21T07:44:31.857Z,37248.00
2018-09-21T07:45:32.362Z,36416.00
2018-09-21T07:46:31.904Z,35648.00
2018-09-21T07:47:31.979Z,34752.00
2018-09-21T07:48:32.062Z,36896.00
2018-09-21T07:49:32.065Z,38304.00
2018-09-21T07:50:32.190Z,39040.00
2018-09-21T07:51:32.174Z,38944.00
2018-09-21T07:52:32.250Z,39680.00
2018-09-21T07:53:32.279Z,40480.00
2018-09-21T07:54:32.400Z,40352.00
2018-09-21T07:55:32.416Z,40256.00
2018-09-21T07:56:32.440Z,41632.00
2018-09-21T07:57:32.526Z,43840.00
2018-09-21T07:58:33.363Z,43488.00
2018-09-21T07:59:32.607Z,42368.00
2018-09-21T08:00:32.676Z,44576.00
2018-09-21T08:01:32.714Z,47488.00
2018-09-21T08:02:32.795Z,47744.00
2018-09-21T08:03:32.825Z,46240.00
2018-09-21T08:04:32.878Z,47968.00
2018-09-21T08:05:32.942Z,51008.00
2018-09-21T08:06:32.994Z,30720.00
2018-09-21T08:07:33.064Z,42080.00
2018-09-21T08:08:33.109Z,41824.00
2018-09-21T08:09:33.235Z,47584.00
2018-09-21T08:10:33.217Z,49056.00
2018-09-21T08:11:33.278Z,48864.00
2018-09-21T08:12:33.323Z,48352.00
2018-09-21T08:13:33.372Z,48224.00
2018-09-21T08:14:33.506Z,50976.00
2018-09-21T08:15:33.490Z,52064.00
2018-09-21T08:16:33.576Z,49824.00
2018-09-21T08:17:33.595Z,49888.00
2018-09-21T08:18:33.648Z,53696.00
2018-09-21T08:19:33.772Z,56384.00
2018-09-21T08:20:33.758Z,54336.00
2018-09-21T08:21:33.918Z,52608.00
2018-09-21T08:22:33.870Z,54528.00
2018-09-21T08:23:33.926Z,53504.00
2018-09-21T08:24:33.997Z,50400.00
2018-09-21T08:25:34.037Z,50720.00
2018-09-21T08:26:34.100Z,52800.00
2018-09-21T08:27:34.153Z,54080.00
2018-09-21T08:28:34.228Z,56032.00
2018-09-21T08:29:34.283Z,59328.00
2018-09-21T08:30:34.341Z,61312.00
2018-09-21T08:31:34.415Z,62656.00
2018-09-21T08:32:34.434Z,60992.00
2018-09-21T08:33:34.487Z,59136.00
2018-09-21T08:34:34.563Z,54752.00
2018-09-21T08:35:34.619Z,54208.00
2018-09-21T08:36:34.654Z,54624.00
2018-09-21T08:37:34.717Z,58336.00
2018-09-21T08:38:35.380Z,63008.00
2018-09-21T08:39:34.840Z,63520.00
2018-09-21T08:40:34.905Z,61408.00
2018-09-21T08:41:34.961Z,59712.00
2018-09-21T08:42:35.000Z,61792.00
2018-09-21T08:43:35.694Z,70016.00
2018-09-21T08:44:35.116Z,79616.00
2018-09-21T08:45:35.188Z,79808.00
2018-09-21T08:46:35.270Z,73216.00
2018-09-21T08:47:35.292Z,68672.00
2018-09-21T08:48:35.885Z,69760.00
2018-09-21T08:49:35.416Z,71872.00
2018-09-21T08:50:36.189Z,70784.00
2018-09-21T08:51:36.387Z,69536.00
2018-09-21T08:52:35.570Z,71424.00
2018-09-21T08:53:35.680Z,74816.00
2018-09-21T08:54:35.729Z,76064.00
2018-09-21T08:55:35.747Z,75264.00
2018-09-21T08:56:35.817Z,75264.00
2018-09-21T08:57:35.860Z,63200.00
2018-09-21T08:58:35.955Z,60704.00
2018-09-21T08:59:35.976Z,64928.00
2018-09-21T09:00:36.033Z,65248.00
2018-09-21T09:01:36.099Z,48192.00
2018-09-21T09:02:36.210Z,33536.00
2018-09-21T09:03:36.208Z,37440.00
2018-09-21T09:04:36.295Z,47680.00
2018-09-21T09:05:36.323Z,65152.00
2018-09-21T09:06:36.929Z,68352.00
2018-09-21T09:07:36.452Z,77664.00
2018-09-21T09:08:36.506Z,73568.00
2018-09-21T09:09:37.396Z,62624.00
2018-09-21T09:10:36.632Z,60928.00
2018-09-21T09:11:36.673Z,57088.00
2018-09-21T09:12:36.741Z,44608.00
2018-09-21T09:13:36.788Z,32576.00
2018-09-21T09:14:37.405Z,25568.00
2018-09-21T09:15:36.907Z,24672.00
2018-09-21T09:16:36.968Z,29312.00
2018-09-21T09:17:37.013Z,34144.00
2018-09-21T09:18:37.070Z,45984.00
2018-09-21T09:19:37.164Z,49536.00
2018-09-21T09:20:37.190Z,50784.00
2018-09-21T09:21:37.242Z,58336.00
2018-09-21T09:22:37.302Z,53056.00
2018-09-21T09:23:37.355Z,60896.00
2018-09-21T09:24:37.474Z,55968.00
2018-09-21T09:25:37.531Z,50048.00
2018-09-21T09:26:37.533Z,45984.00
2018-09-21T09:27:37.581Z,45536.00
2018-09-21T09:28:37.648Z,36864.00
2018-09-21T09:29:37.702Z,35136.00
2018-09-21T09:30:37.775Z,35872.00
2018-09-21T09:31:37.820Z,43616.00
2018-09-21T09:32:37.869Z,53440.00
2018-09-21T09:33:37.924Z,57280.00
2018-09-21T09:34:37.981Z,60288.00
2018-09-21T09:35:38.062Z,67232.00
2018-09-21T09:36:38.115Z,73312.00
2018-09-21T09:37:38.173Z,80320.00
2018-09-21T09:38:38.209Z,73376.00
2018-09-21T09:39:38.267Z,75328.00
2018-09-21T09:40:38.324Z,73888.00
2018-09-21T09:41:38.405Z,77824.00
2018-09-21T09:42:38.512Z,77248.00
2018-09-21T09:43:38.495Z,66400.00
2018-09-21T09:44:38.555Z,89408.00
2018-09-21T09:45:38.619Z,91264.00
2018-09-21T09:46:38.687Z,87392.00
2018-09-21T09:47:38.724Z,83008.00
2018-09-21T09:48:38.945Z,79104.00
2018-09-21T09:49:38.910Z,80352.00
2018-09-21T09:50:38.895Z,84704.00
2018-09-21T09:51:39.462Z,83264.00
2018-09-21T09:52:39.033Z,80512.00
2018-09-21T09:53:39.086Z,77280.00
2018-09-21T09:54:39.179Z,67456.00
2018-09-21T09:55:39.188Z,55104.00
2018-09-21T09:56:39.244Z,52864.00
2018-09-21T09:57:39.334Z,56704.00
2018-09-21T09:58:39.920Z,55264.00
2018-09-21T09:59:39.423Z,66688.00
2018-09-21T10:00:39.954Z,71040.00
2018-09-21T10:01:39.536Z,70048.00
2018-09-21T10:02:39.622Z,72320.00
2018-09-21T10:03:39.707Z,74528.00
2018-09-21T10:04:39.709Z,72224.00
2018-09-21T10:05:39.765Z,76640.00
2018-09-21T10:06:39.824Z,66368.00
2018-09-21T10:07:39.906Z,72096.00
2018-09-21T10:08:40.045Z,69664.00
2018-09-21T10:09:39.994Z,65280.00
2018-09-21T10:10:40.049Z,63392.00
2018-09-21T10:11:40.112Z,69280.00
2018-09-21T10:12:40.190Z,80000.00
2018-09-21T10:13:40.257Z,68256.00
2018-09-21T10:14:40.289Z,72768.00
2018-09-21T10:15:40.354Z,63008.00
2018-09-21T10:16:40.396Z,64064.00
2018-09-21T10:17:40.457Z,72096.00
2018-09-21T10:18:40.541Z,53920.00
2018-09-21T10:19:40.585Z,59520.00
2018-09-21T10:20:40.646Z,61920.00
2018-09-21T10:21:40.735Z,69760.00
2018-09-21T10:22:40.731Z,82272.00
2018-09-21T10:23:40.791Z,81984.00
2018-09-21T10:24:40.849Z,90432.00
2018-09-21T10:25:40.903Z,57920.00
2018-09-21T10:26:41.013Z,59968.00
2018-09-21T10:27:41.232Z,67040.00
2018-09-21T10:28:41.275Z,91552.00
2018-09-21T10:29:41.968Z,89408.00
2018-09-21T10:30:41.184Z,81344.00
2018-09-21T10:31:41.247Z,81024.00
2018-09-21T10:32:41.296Z,84000.00
2018-09-21T10:33:41.477Z,89696.00
2018-09-21T10:34:41.995Z,89312.00
2018-09-21T10:35:41.562Z,53472.00
2018-09-21T10:36:41.523Z,73408.00
2018-09-21T10:37:41.593Z,99072.00
2018-09-21T10:38:41.672Z,94752.00
2018-09-21T10:39:41.705Z,112032.00
2018-09-21T10:40:41.758Z,80256.00
2018-09-21T10:41:41.873Z,50944.00
2018-09-21T10:42:41.921Z,36320.00
2018-09-21T10:43:41.930Z,24768.00
2018-09-21T10:44:41.987Z,19200.00
2018-09-21T10:45:42.036Z,18176.00
2018-09-21T10:46:42.167Z,17728.00
2018-09-21T10:47:42.149Z,17760.00
2018-09-21T10:48:42.201Z,18240.00
2018-09-21T10:49:42.279Z,29120.00
2018-09-21T10:50:42.318Z,35808.00
2018-09-21T10:51:42.391Z,29088.00
2018-09-21T10:52:42.470Z,29632.00
2018-09-21T10:53:42.482Z,72128.00
2018-09-21T10:54:42.559Z,86720.00
2018-09-21T10:55:42.593Z,85024.00
2018-09-21T10:56:42.648Z,96192.00
2018-09-21T10:57:42.711Z,98336.00
2018-09-21T10:58:42.829Z,90720.00
2018-09-21T10:59:42.831Z,90016.00
2018-09-21T11:00:42.923Z,91456.00
2018-09-21T11:01:42.955Z,91968.00
2018-09-21T11:02:42.989Z,92640.00
2018-09-21T11:03:43.038Z,93664.00
2018-09-21T11:04:43.097Z,95808.00
2018-09-21T11:05:43.212Z,83264.00
2018-09-21T11:06:43.209Z,79584.00
2018-09-21T11:07:43.271Z,53408.00
2018-09-21T11:08:43.320Z,62528.00
2018-09-21T11:09:43.377Z,72800.00
2018-09-21T11:10:43.454Z,101184.00
2018-09-21T11:11:43.491Z,102720.00
2018-09-21T11:12:43.596Z,103616.00
2018-09-21T11:13:43.602Z,101856.00
2018-09-21T11:14:43.660Z,93568.00
2018-09-21T11:15:43.719Z,90272.00
2018-09-21T11:16:43.791Z,80160.00
2018-09-21T11:17:43.858Z,90176.00
2018-09-21T11:18:43.893Z,100768.00
2018-09-21T11:19:43.958Z,106112.00
2018-09-21T11:20:44.051Z,103936.00
2018-09-21T11:21:44.093Z,97728.00
2018-09-21T11:22:44.136Z,95840.00
2018-09-21T11:23:44.199Z,91424.00
2018-09-21T11:24:44.252Z,93344.00
2018-09-21T11:25:44.322Z,93792.00
2018-09-21T11:26:44.365Z,37152.00
2018-09-21T11:27:44.425Z,40128.00
2018-09-21T11:28:44.483Z,91488.00
2018-09-21T11:29:44.564Z,95424.00
2018-09-21T11:30:44.613Z,80000.00
2018-09-21T11:31:44.668Z,62336.00
2018-09-21T11:32:44.749Z,117248.00
2018-09-21T11:33:44.779Z,108864.00
2018-09-21T11:34:44.869Z,37216.00
2018-09-21T11:35:44.898Z,73344.00
2018-09-21T11:36:44.961Z,68608.00
2018-09-21T11:37:45.025Z,23104.00
2018-09-21T11:38:45.078Z,28576.00
2018-09-21T11:39:45.161Z,22848.00
2018-09-21T11:40:45.225Z,24288.00
2018-09-21T11:41:45.269Z,109088.00
2018-09-21T11:42:45.315Z,49312.00
2018-09-21T11:43:45.380Z,29696.00
2018-09-21T11:44:45.439Z,47040.00
2018-09-21T11:45:45.509Z,100992.00
2018-09-21T11:46:45.647Z,94208.00
2018-09-21T11:47:45.652Z,74976.00
2018-09-21T11:48:45.688Z,47424.00
2018-09-21T11:49:45.719Z,29024.00
2018-09-21T11:50:45.796Z,31264.00
2018-09-21T11:51:45.837Z,36672.00
2018-09-21T11:52:45.891Z,53952.00
2018-09-21T11:53:45.978Z,71104.00
2018-09-21T11:54:46.011Z,50752.00
2018-09-21T11:55:46.069Z,44608.00
2018-09-21T11:56:46.122Z,70112.00
2018-09-21T11:57:46.200Z,81440.00
2018-09-21T11:58:46.255Z,38784.00
2018-09-21T11:59:46.306Z,45984.00
2018-09-21T12:00:46.352Z,42816.00
2018-09-21T12:01:46.445Z,62176.00
2018-09-21T12:02:46.500Z,37440.00
2018-09-21T12:03:46.529Z,30912.00
2018-09-21T12:04:46.629Z,28608.00
2018-09-21T12:05:46.643Z,29568.00
2018-09-21T12:06:46.699Z,49728.00
2018-09-21T12:07:46.800Z,54656.00
2018-09-21T12:08:46.811Z,42464.00
2018-09-21T12:09:46.871Z,41056.00
2018-09-21T12:10:46.944Z,36864.00
2018-09-21T12:11:46.984Z,32736.00
2018-09-21T12:12:47.062Z,27584.00
2018-09-21T12:13:47.097Z,27872.00
2018-09-21T12:14:47.229Z,28672.00
2018-09-21T12:15:47.210Z,36160.00
2018-09-21T12:16:47.294Z,31232.00
2018-09-21T12:17:47.347Z,39808.00
2018-09-21T12:18:47.387Z,27712.00
2018-09-21T12:19:47.439Z,25408.00
2018-09-21T12:20:47.530Z,25120.00
2018-09-21T12:21:47.562Z,25408.00
2018-09-21T12:22:48.391Z,26720.00